Time;durP1;ratioP1;P1;durP2;ratioP2;P2;SDS_P1;SDS_P2;PMS_P1;PMS_P2;Temp;Humidity;BMP_temperature;BMP_pressure;BME280_temperature;BME280_humidity;BME280_pressure;Samples;Min_cycle;Max_cycle;Signal;HPM_P1;HPM_P2
2023/01/04 00:01:20;;;;;;;1.42;0.88;;;;;;;3.05;68.20;98538.81;4823463;29;20046;-75
2023/01/04 00:03:46;;;;;;;0.50;0.40;;;;;;;3.08;68.87;98545.66;4821867;29;20114;-75
2023/01/04 00:06:14;;;;;;;1.80;0.40;;;;;;;3.10;68.66;98554.22;4822350;29;20137;-74
2023/01/04 00:08:40;;;;;;;0.85;0.55;;;;;;;3.22;68.58;98569.66;4822847;29;20050;-74
2023/01/04 00:11:11;;;;;;;1.60;0.75;;;;;;;2.86;68.83;98532.78;4828228;29;20065;-76
2023/01/04 00:13:37;;;;;;;0.80;0.50;;;;;;;3.07;68.17;98572.22;4824088;29;20081;-74
2023/01/04 00:16:06;;;;;;;0.65;0.50;;;;;;;3.03;68.73;98571.38;4821994;29;20045;-76
2023/01/04 00:18:32;;;;;;;0.40;0.40;;;;;;;3.11;68.61;98591.94;4821340;29;20057;-75
2023/01/04 00:21:29;;;;;;;0.63;0.50;;;;;;;3.09;68.38;98603.94;4823277;29;20058;-74
2023/01/04 00:23:57;;;;;;;0.40;0.30;;;;;;;3.08;69.01;98589.34;4817828;29;20046;-74
2023/01/04 00:26:29;;;;;;;0.45;0.40;;;;;;;3.00;68.50;98571.34;4823600;29;20504;-77
2023/01/04 00:28:58;;;;;;;0.40;0.40;;;;;;;3.14;68.40;98590.22;4822127;29;20042;-76
2023/01/04 00:31:26;;;;;;;0.65;0.50;;;;;;;3.20;68.37;98612.50;4822427;29;20114;-77
2023/01/04 00:33:53;;;;;;;0.55;0.55;;;;;;;3.14;68.42;98597.94;4822155;29;20050;-77
2023/01/04 00:36:19;;;;;;;0.93;0.55;;;;;;;3.24;68.02;98627.09;4824285;29;20108;-76
2023/01/04 00:38:45;;;;;;;0.80;0.43;;;;;;;3.26;67.79;98622.81;4823604;29;20046;-72
2023/01/04 00:41:12;;;;;;;0.73;0.57;;;;;;;3.28;67.83;98623.69;4827682;29;20071;-75
2023/01/04 00:43:38;;;;;;;0.55;0.30;;;;;;;3.38;68.61;98626.28;4835097;29;20038;-77
2023/01/04 00:46:10;;;;;;;0.40;0.40;;;;;;;3.35;68.37;98621.97;4833399;29;20050;-74
2023/01/04 00:48:36;;;;;;;0.47;0.45;;;;;;;3.26;68.05;98604.81;4832945;29;20201;-75
2023/01/04 00:51:03;;;;;;;1.15;0.60;;;;;;;3.39;67.69;98630.56;4817284;29;20061;-75
2023/01/04 00:53:28;;;;;;;0.40;0.40;;;;;;;3.28;68.20;98609.97;4817090;29;20416;-76
2023/01/04 00:56:00;;;;;;;0.73;0.60;;;;;;;3.42;67.57;98633.16;4831625;29;20046;-75
2023/01/04 00:58:26;;;;;;;0.50;0.50;;;;;;;3.33;67.63;98617.69;4831981;29;20065;-75
2023/01/04 01:00:52;;;;;;;0.43;0.35;;;;;;;2.97;67.56;98582.50;4831287;29;20107;-76
2023/01/04 01:03:18;;;;;;;1.23;0.40;;;;;;;3.37;67.46;98630.53;4807504;29;20046;-75
2023/01/04 01:05:44;;;;;;;1.05;0.50;;;;;;;3.27;66.79;98626.25;4822276;29;20043;-75
2023/01/04 01:08:25;;;;;;;2.40;1.38;;;;;;;3.28;67.17;98631.38;4806773;29;20132;-75
2023/01/04 01:10:52;;;;;;;0.80;0.70;;;;;;;3.31;67.45;98656.28;4823172;29;20109;-74
2023/01/04 01:13:18;;;;;;;0.50;0.40;;;;;;;3.22;66.70;98687.09;4822463;29;20552;-76
2023/01/04 01:15:44;;;;;;;0.50;0.50;;;;;;;3.05;66.83;98671.59;4822110;29;20432;-74
2023/01/04 01:18:10;;;;;;;0.70;0.70;;;;;;;2.84;67.21;98675.81;4822478;29;20106;-75
2023/01/04 01:20:44;;;;;;;1.42;1.00;;;;;;;2.84;67.32;98709.22;4823696;29;20491;-78
2023/01/04 01:23:13;;;;;;;1.73;1.20;;;;;;;2.62;67.59;98685.97;4823146;29;20034;-77
2023/01/04 01:25:40;;;;;;;2.67;1.50;;;;;;;2.66;67.82;98718.53;4828793;29;20069;-78
2023/01/04 01:28:07;;;;;;;2.80;1.85;;;;;;;2.74;67.54;98746.00;4825411;29;20045;-76
2023/01/04 01:30:33;;;;;;;3.30;1.80;;;;;;;2.56;67.37;98747.56;4809099;29;20079;-76
2023/01/04 01:32:59;;;;;;;3.05;2.03;;;;;;;2.51;67.00;98764.69;4824454;29;20525;-77
2023/01/04 01:35:25;;;;;;;1.90;1.60;;;;;;;2.24;67.88;98754.19;4824579;29;20057;-75
2023/01/04 01:37:51;;;;;;;2.38;1.70;;;;;;;2.32;68.12;98792.78;4809664;29;20461;-73
2023/01/04 01:40:17;;;;;;;2.60;1.83;;;;;;;2.22;67.03;98785.84;4824860;29;20094;-77
2023/01/04 01:42:43;;;;;;;6.07;1.98;;;;;;;2.06;67.54;98780.59;4823723;29;20038;-74
2023/01/04 01:45:25;;;;;;;3.72;2.08;;;;;;;1.98;66.82;98796.75;4824704;29;20053;-76
2023/01/04 01:47:53;;;;;;;3.83;2.25;;;;;;;1.89;67.45;98816.34;4794150;29;20100;-74
2023/01/04 01:50:27;;;;;;;2.83;2.00;;;;;;;1.81;67.62;98805.13;4826182;29;20050;-75
2023/01/04 01:52:55;;;;;;;2.65;1.67;;;;;;;1.72;67.33;98807.63;4825047;29;20115;-74
2023/01/04 01:55:22;;;;;;;2.63;1.75;;;;;;;1.73;67.65;98835.00;4826004;29;20050;-74
2023/01/04 01:57:50;;;;;;;3.72;2.05;;;;;;;1.71;67.10;98847.78;4825231;29;20049;-74
2023/01/04 02:00:17;;;;;;;2.88;1.75;;;;;;;1.72;67.51;98854.63;4824414;29;20038;-75
2023/01/04 02:02:54;;;;;;;5.07;2.75;;;;;;;1.65;66.64;98858.84;4824846;29;20093;-75
2023/01/04 02:05:20;;;;;;;2.58;1.83;;;;;;;1.61;67.25;98869.03;4824552;29;20050;-75
2023/01/04 02:07:48;;;;;;;4.25;2.30;;;;;;;1.38;66.27;98877.31;4827929;29;20046;-74
2023/01/04 02:10:14;;;;;;;3.83;2.10;;;;;;;1.25;66.40;98867.69;4827161;29;20053;-74
2023/01/04 02:12:42;;;;;;;5.22;2.78;;;;;;;1.36;66.29;98902.06;4808930;29;20058;-75
2023/01/04 02:15:09;;;;;;;3.85;2.50;;;;;;;1.12;67.03;98882.91;4825434;29;20081;-76
2023/01/04 02:18:09;;;;;;;3.50;2.05;;;;;;;1.21;66.28;98923.19;4823962;29;20542;-77
2023/01/04 02:20:49;;;;;;;2.38;1.90;;;;;;;1.07;66.95;98932.38;4824098;29;20099;-76
2023/01/04 02:23:39;;;;;;;3.35;2.08;;;;;;;1.08;66.66;98934.97;4825268;29;20049;-75
2023/01/04 02:26:25;;;;;;;2.72;1.90;;;;;;;1.04;66.79;98946.88;4810042;29;20436;-78
2023/01/04 02:29:36;;;;;;;3.55;1.90;;;;;;;0.98;66.50;98964.69;4825749;29;20058;-76
2023/01/04 02:32:11;;;;;;;2.92;1.70;;;;;;;0.95;66.58;98961.22;4816060;29;20118;-73
2023/01/04 02:35:01;;;;;;;4.10;2.05;;;;;;;0.81;66.39;98968.69;4796972;29;20046;-77
2023/01/04 02:37:39;;;;;;;3.00;2.00;;;;;;;0.88;66.41;98993.56;4826403;29;20046;-76
2023/01/04 02:40:12;;;;;;;3.60;2.00;;;;;;;0.98;66.56;98995.44;4828368;29;20424;-75
2023/01/04 02:46:03;;;;;;;6.63;3.08;;;;;;;0.96;66.48;98993.69;4827945;29;20085;-76
2023/01/04 02:51:35;;;;;;;7.80;2.47;;;;;;;0.98;66.45;99035.59;4844637;29;20050;-73
2023/01/04 02:54:06;;;;;;;3.67;1.90;;;;;;;0.96;66.33;99032.97;4843863;29;20046;-73
2023/01/04 02:57:14;;;;;;;4.13;2.05;;;;;;;0.89;66.37;99028.56;4842814;29;20048;-73
2023/01/04 03:00:04;;;;;;;3.88;2.45;;;;;;;0.92;66.18;99045.72;4842118;29;20057;-74
2023/01/04 03:08:39;;;;;;;2.97;2.10;;;;;;;1.00;65.96;99082.56;4825510;29;20049;-75
2023/01/04 03:13:59;;;;;;;2.50;1.70;;;;;;;0.99;66.06;99104.78;4807877;29;20054;-78
2023/01/04 03:16:27;;;;;;;3.15;2.47;;;;;;;0.89;65.71;99085.81;4824861;29;20136;-76
2023/01/04 03:18:57;;;;;;;4.95;2.28;;;;;;;0.99;65.61;99115.03;4793566;29;20447;-76
2023/01/04 03:21:26;;;;;;;3.63;2.45;;;;;;;0.92;65.47;99099.53;4823814;29;20119;-78
2023/01/04 03:35:46;;;;;;;3.97;2.60;;;;;;;0.65;64.72;99141.69;4824091;29;20184;-75
2023/01/04 03:50:30;;;;;;;4.43;2.88;;;;;;;0.65;64.84;99193.78;4822190;29;20449;-77
2023/01/04 03:52:58;;;;;;;3.88;2.45;;;;;;;0.78;65.10;99205.13;4823096;29;20097;-74
2023/01/04 03:55:28;;;;;;;4.65;2.47;;;;;;;0.60;64.45;99193.66;4813680;29;20137;-74
2023/01/04 03:57:55;;;;;;;5.13;3.47;;;;;;;0.66;64.60;99215.13;4823918;29;20046;-74
2023/01/04 04:00:22;;;;;;;3.97;2.85;;;;;;;0.65;64.47;99219.41;4807444;29;20361;-75
2023/01/04 04:02:49;;;;;;;4.07;2.78;;;;;;;0.60;64.39;99208.19;4826624;29;20102;-77
2023/01/04 04:10:53;;;;;;;3.58;2.42;;;;;;;0.57;64.48;99215.78;4827956;29;20038;-79
2023/01/04 04:13:20;;;;;;;2.33;1.98;;;;;;;0.63;63.55;99236.41;4809025;29;20065;-77
2023/01/04 04:15:52;;;;;;;3.22;2.05;;;;;;;0.69;63.74;99243.38;4831430;29;20057;-79
2023/01/04 04:18:18;;;;;;;2.67;2.10;;;;;;;0.60;63.86;99252.56;4824866;29;20137;-77
2023/01/04 04:20:44;;;;;;;3.22;2.17;;;;;;;0.73;64.18;99260.53;4825572;29;20053;-79
2023/01/04 04:23:10;;;;;;;3.60;2.30;;;;;;;0.70;63.31;99260.47;4837745;29;20038;-75
2023/01/04 04:25:37;;;;;;;3.85;2.17;;;;;;;0.47;63.54;99235.19;4841624;29;20508;-79
2023/01/04 04:28:03;;;;;;;3.95;2.20;;;;;;;0.59;63.10;99261.06;4838843;29;20049;-73
2023/01/04 04:30:28;;;;;;;3.53;2.20;;;;;;;0.73;63.40;99283.59;4839503;29;20042;-75
2023/01/04 04:32:55;;;;;;;3.22;2.00;;;;;;;0.72;63.35;99279.28;4837886;29;20050;-74
2023/01/04 04:35:21;;;;;;;2.47;1.80;;;;;;;0.77;64.28;99281.94;4834356;29;20069;-75
2023/01/04 04:37:47;;;;;;;3.13;1.90;;;;;;;0.76;63.31;99291.34;4833395;29;20046;-75
2023/01/04 04:41:37;;;;;;;3.80;2.15;;;;;;;0.66;63.45;99286.84;4817128;29;20042;-75
2023/01/04 04:43:01;;;;;;;3.53;2.03;;;;;;;0.57;63.23;99275.53;4808819;29;20049;-73
2023/01/04 04:45:27;;;;;;;2.45;1.70;;;;;;;0.65;63.06;99282.53;4835291;29;20046;-75
2023/01/04 04:47:53;;;;;;;3.83;1.63;;;;;;;0.58;63.15;99278.97;4821141;29;20046;-74
2023/01/04 04:50:19;;;;;;;2.00;1.60;;;;;;;0.76;63.39;99301.59;4821669;29;20075;-72
2023/01/04 04:52:45;;;;;;;3.20;1.75;;;;;;;0.64;63.08;99303.84;4836398;29;20073;-75
2023/01/04 04:55:11;;;;;;;3.75;1.77;;;;;;;0.62;63.66;99308.94;4799557;29;20047;-77
2023/01/04 04:57:37;;;;;;;2.88;1.70;;;;;;;0.57;62.96;99326.75;4823721;29;20061;-74
2023/01/04 05:00:03;;;;;;;3.25;1.58;;;;;;;0.57;62.77;99325.91;4806825;29;20145;-77
2023/01/04 05:02:30;;;;;;;2.25;1.58;;;;;;;0.50;63.46;99314.66;4822663;29;20531;-76
2023/01/04 05:04:56;;;;;;;2.80;1.77;;;;;;;0.70;63.67;99334.75;4821738;29;20626;-79
2023/01/04 05:07:22;;;;;;;3.40;1.70;;;;;;;0.58;63.03;99313.13;4823387;29;20137;-77
2023/01/04 05:09:48;;;;;;;3.67;1.98;;;;;;;0.70;63.58;99332.19;4828851;29;20057;-77
2023/01/04 05:14:58;;;;;;;3.58;1.80;;;;;;;0.90;63.29;99365.94;4823415;29;20050;-79
2023/01/04 05:17:24;;;;;;;2.50;1.80;;;;;;;0.81;62.14;99361.47;4823433;29;20050;-78
2023/01/04 05:19:50;;;;;;;4.97;1.80;;;;;;;0.70;62.10;99373.16;4823881;29;20188;-77
2023/01/04 05:22:16;;;;;;;5.38;2.10;;;;;;;0.53;63.10;99348.00;4830321;29;20114;-75
2023/01/04 05:24:42;;;;;;;2.63;2.03;;;;;;;0.73;62.60;99383.47;4826373;29;20057;-79
2023/01/04 05:27:08;;;;;;;2.90;1.77;;;;;;;0.74;61.96;99386.06;4823743;29;20052;-79
2023/01/04 05:32:18;;;;;;;3.10;1.88;;;;;;;0.56;63.17;99349.78;4823493;29;20136;-78
2023/01/04 05:34:44;;;;;;;2.20;1.60;;;;;;;0.68;62.15;99390.19;4823783;29;20085;-77
2023/01/04 05:37:10;;;;;;;2.17;1.50;;;;;;;0.76;62.44;99411.75;4823103;29;20473;-75
2023/01/04 05:39:36;;;;;;;4.00;1.70;;;;;;;0.67;62.27;99421.75;4822280;29;20416;-77
2023/01/04 05:44:47;;;;;;;2.88;1.70;;;;;;;0.36;62.73;99411.59;4823057;29;20070;-78
2023/01/04 05:47:13;;;;;;;2.80;1.60;;;;;;;0.54;63.36;99438.50;4822436;29;20034;-77
2023/01/04 05:49:39;;;;;;;6.15;2.40;;;;;;;0.47;62.64;99422.09;4806141;29;20051;-78
2023/01/04 05:52:05;;;;;;;2.45;1.40;;;;;;;0.35;62.89;99420.09;4822227;29;20046;-77
2023/01/04 05:54:31;;;;;;;1.60;1.45;;;;;;;0.40;62.27;99435.56;4820752;29;20397;-79
2023/01/04 05:56:56;;;;;;;3.88;1.67;;;;;;;-0.06;62.59;99384.88;4805690;29;20052;-77
2023/01/04 05:59:22;;;;;;;2.88;1.50;;;;;;;0.30;62.69;99442.13;4821894;29;20120;-76
2023/01/04 06:01:48;;;;;;;2.20;1.20;;;;;;;0.25;62.56;99457.38;4821810;29;20050;-77
2023/01/04 06:04:15;;;;;;;3.25;1.58;;;;;;;0.14;61.99;99445.97;4804965;29;20050;-76
2023/01/04 06:06:41;;;;;;;1.70;1.35;;;;;;;0.31;61.84;99491.66;4805459;29;20042;-77
2023/01/04 06:09:07;;;;;;;2.53;1.42;;;;;;;0.27;62.04;99472.75;4820503;29;20434;-77
2023/01/04 06:11:33;;;;;;;2.58;1.67;;;;;;;0.29;61.41;99489.91;4821713;29;20080;-77
2023/01/04 06:13:58;;;;;;;2.67;1.55;;;;;;;0.39;61.97;99495.28;4821503;29;20046;-78
2023/01/04 06:16:24;;;;;;;2.70;1.52;;;;;;;0.33;62.09;99479.75;4823590;29;20054;-78
2023/01/04 06:18:51;;;;;;;2.95;1.50;;;;;;;0.35;61.64;99488.31;4823891;29;20046;-79
2023/01/04 06:21:17;;;;;;;2.20;1.20;;;;;;;0.44;62.07;99501.38;4823902;29;20057;-78
2023/01/04 06:23:43;;;;;;;2.35;1.27;;;;;;;0.36;61.78;99510.53;4827911;29;20042;-79
2023/01/04 06:26:09;;;;;;;2.80;1.30;;;;;;;0.29;61.64;99514.63;4813519;29;20050;-77
2023/01/04 06:28:35;;;;;;;3.03;1.45;;;;;;;0.27;61.80;99512.03;4824482;29;20061;-77
2023/01/04 06:31:06;;;;;;;2.58;1.60;;;;;;;0.21;61.57;99514.41;4825788;29;20072;-77
2023/01/04 06:33:33;;;;;;;2.95;1.90;;;;;;;0.17;62.04;99515.16;4824931;29;20082;-76
2023/01/04 06:36:02;;;;;;;2.60;1.50;;;;;;;0.23;61.59;99524.69;4809612;29;20141;-82
2023/01/04 06:38:30;;;;;;;4.43;1.60;;;;;;;0.00;61.46;99481.41;4825467;29;20154;-75
2023/01/04 06:40:56;;;;;;;2.55;1.40;;;;;;;0.21;61.32;99509.28;4824184;29;20042;-81
2023/01/04 06:43:22;;;;;;;2.50;1.70;;;;;;;0.24;60.40;99514.50;4808472;29;20134;-80
2023/01/04 06:45:51;;;;;;;3.20;1.65;;;;;;;-0.12;61.55;99440.13;4808398;29;20042;-79
2023/01/04 06:48:17;;;;;;;3.08;1.50;;;;;;;0.45;61.21;99536.41;4793588;29;20049;-78
2023/01/04 06:50:52;;;;;;;3.42;2.25;;;;;;;0.25;61.25;99503.44;4824626;29;20050;-79
2023/01/04 06:53:21;;;;;;;2.67;1.70;;;;;;;-0.05;60.81;99480.41;4807906;29;20075;-77
2023/01/04 06:55:47;;;;;;;5.22;1.70;;;;;;;0.29;60.34;99540.22;4809173;29;20039;-78
2023/01/04 06:58:16;;;;;;;3.00;1.70;;;;;;;0.44;61.29;99573.94;4824597;29;20067;-78
2023/01/04 07:00:42;;;;;;;2.45;1.60;;;;;;;0.12;61.06;99524.38;4823951;29;20053;-81
2023/01/04 07:03:08;;;;;;;4.13;1.40;;;;;;;0.28;61.27;99549.63;4826647;29;20072;-79
2023/01/04 07:05:34;;;;;;;2.85;1.67;;;;;;;0.42;60.32;99569.59;4822878;29;20050;-77
2023/01/04 07:08:01;;;;;;;4.78;1.60;;;;;;;0.51;61.07;99597.16;4823676;29;20049;-76
2023/01/04 07:10:28;;;;;;;3.95;1.83;;;;;;;0.51;61.09;99594.59;4822585;29;20111;-77
2023/01/04 07:12:56;;;;;;;3.75;1.60;;;;;;;0.42;60.34;99597.75;4824000;29;20093;-79
2023/01/04 07:15:25;;;;;;;3.00;1.55;;;;;;;0.32;60.74;99600.91;4808477;29;20057;-81
2023/01/04 07:17:51;;;;;;;2.60;1.40;;;;;;;0.22;61.00;99580.13;4808273;29;20417;-77
2023/01/04 07:20:20;;;;;;;2.50;1.38;;;;;;;0.19;60.10;99587.72;4824689;29;20124;-77
2023/01/04 07:22:52;;;;;;;1.88;1.40;;;;;;;0.35;60.76;99618.88;4825164;29;20042;-78
2023/01/04 07:25:18;;;;;;;6.28;2.65;;;;;;;0.28;60.69;99608.50;4825062;29;20400;-76
2023/01/04 07:27:44;;;;;;;1.70;1.20;;;;;;;0.25;60.93;99598.16;4826987;29;20088;-77
2023/01/04 07:30:13;;;;;;;2.92;1.65;;;;;;;0.34;60.56;99606.91;4829989;29;20042;-78
2023/01/04 07:32:45;;;;;;;3.03;1.52;;;;;;;0.28;60.35;99616.16;4826426;29;20046;-79
2023/01/04 07:35:18;;;;;;;2.45;1.33;;;;;;;-0.03;60.75;99569.16;4814941;29;20053;-78
2023/01/04 07:37:45;;;;;;;4.65;2.08;;;;;;;0.34;60.04;99638.50;4833863;29;20074;-77
2023/01/04 07:40:11;;;;;;;1.90;1.50;;;;;;;0.27;60.18;99614.44;4836570;29;20477;-79
2023/01/04 07:42:53;;;;;;;4.63;1.83;;;;;;;0.35;60.27;99627.44;4831383;29;20042;-80
2023/01/04 07:45:19;;;;;;;6.20;3.13;;;;;;;0.42;60.32;99659.22;4827168;29;20165;-78
2023/01/04 07:47:45;;;;;;;5.00;2.58;;;;;;;0.15;60.16;99634.50;4825894;29;20053;-79
2023/01/04 07:50:11;;;;;;;3.20;1.83;;;;;;;0.19;59.94;99645.72;4824023;29;20046;-78
2023/01/04 07:52:59;;;;;;;4.22;1.80;;;;;;;0.07;60.03;99647.06;4808920;29;20394;-80
2023/01/04 07:55:46;;;;;;;2.30;1.15;;;;;;;-0.15;60.25;99604.63;4823614;29;20050;-77
2023/01/04 07:58:11;;;;;;;3.35;1.23;;;;;;;-0.32;60.58;99611.75;4808775;29;20043;-80
2023/01/04 08:00:46;;;;;;;2.17;1.25;;;;;;;0.22;60.28;99695.31;4793677;29;20054;-83
2023/01/04 08:03:26;;;;;;;2.85;1.20;;;;;;;-1.02;60.45;99484.28;4808171;29;20050;-79
2023/01/04 08:05:52;;;;;;;3.05;1.55;;;;;;;0.24;60.05;99696.25;4822436;29;20077;-80
2023/01/04 08:08:21;;;;;;;4.18;1.63;;;;;;;-0.07;59.73;99646.63;4792331;29;20134;-79
2023/01/04 08:10:47;;;;;;;2.30;1.42;;;;;;;0.12;60.42;99671.13;4823815;29;20425;-78
2023/01/04 08:13:16;;;;;;;3.83;2.13;;;;;;;0.32;59.70;99693.06;4824042;29;20051;-82
2023/01/04 08:15:54;;;;;;;5.18;1.95;;;;;;;-0.13;60.06;99626.00;4810130;29;20669;-78
2023/01/04 08:18:26;;;;;;;3.60;1.67;;;;;;;0.17;60.01;99678.94;4825178;29;20050;-79
2023/01/04 08:21:06;;;;;;;3.03;1.92;;;;;;;-0.23;60.19;99593.28;4825227;29;20050;-75
2023/01/04 08:23:34;;;;;;;5.30;2.35;;;;;;;0.43;60.27;99684.88;4823728;29;20042;-78
2023/01/04 08:26:05;;;;;;;3.35;1.73;;;;;;;0.56;59.65;99693.78;4826986;29;20111;-76
2023/01/04 08:28:32;;;;;;;3.00;1.70;;;;;;;0.54;59.68;99685.22;4822806;29;20659;-76
2023/01/04 08:31:04;;;;;;;3.22;2.05;;;;;;;0.59;58.93;99704.13;4823241;29;20072;-77
2023/01/04 08:33:31;;;;;;;3.47;1.80;;;;;;;0.77;59.88;99702.94;4828863;29;20065;-76
2023/01/04 08:36:10;;;;;;;4.32;1.70;;;;;;;0.80;59.23;99704.72;4839196;29;20075;-77
2023/01/04 08:38:36;;;;;;;3.55;1.98;;;;;;;0.59;59.01;99703.25;4859865;24;20070;-79
2023/01/04 08:41:05;;;;;;;3.95;1.90;;;;;;;0.43;59.19;99700.25;4846507;29;20129;-78
2023/01/04 08:43:32;;;;;;;4.85;1.90;;;;;;;0.41;59.51;99708.69;4814898;29;20023;-78
2023/01/04 08:45:58;;;;;;;2.53;1.80;;;;;;;0.33;59.43;99718.69;4845198;29;20057;-77
2023/01/04 08:48:24;;;;;;;3.45;2.00;;;;;;;0.24;59.40;99711.59;4846932;29;20042;-77
2023/01/04 08:50:50;;;;;;;2.97;1.70;;;;;;;0.15;59.05;99695.94;4858247;29;20042;-79
2023/01/04 08:53:16;;;;;;;2.50;1.60;;;;;;;0.25;59.23;99703.09;4823812;29;20085;-78
2023/01/04 08:55:48;;;;;;;2.42;1.77;;;;;;;0.13;59.43;99700.13;4809395;29;20042;-80
2023/01/04 08:58:14;;;;;;;2.47;1.92;;;;;;;0.14;58.81;99715.56;4806497;29;20394;-78
2023/01/04 09:00:40;;;;;;;4.80;2.25;;;;;;;0.13;59.24;99728.28;4809829;29;20050;-78
2023/01/04 09:03:06;;;;;;;3.13;2.03;;;;;;;-0.04;58.94;99707.28;4776128;29;20077;-78
2023/01/04 09:05:32;;;;;;;4.13;2.13;;;;;;;0.05;58.75;99730.59;4805587;29;20109;-79
2023/01/04 09:07:59;;;;;;;2.42;1.85;;;;;;;-0.07;58.75;99712.31;4807612;29;20427;-77
2023/01/04 09:10:26;;;;;;;2.80;2.00;;;;;;;-0.17;58.55;99717.09;4824259;29;20062;-79
2023/01/04 09:12:52;;;;;;;2.92;1.70;;;;;;;-0.09;59.69;99727.59;4806074;29;20051;-78
2023/01/04 09:15:18;;;;;;;3.70;2.13;;;;;;;-0.05;59.30;99723.47;4806761;29;20179;-78
2023/01/04 09:17:44;;;;;;;3.47;1.90;;;;;;;0.03;58.86;99726.25;4805079;29;20054;-79
2023/01/04 09:20:13;;;;;;;2.95;1.63;;;;;;;-0.06;59.41;99706.38;4805023;29;20054;-80
2023/01/04 09:22:40;;;;;;;3.03;1.75;;;;;;;0.03;58.47;99721.16;4805700;29;20042;-77
2023/01/04 09:25:06;;;;;;;2.83;2.15;;;;;;;0.04;58.90;99726.31;4793021;29;20111;-78
2023/01/04 09:27:32;;;;;;;4.43;1.92;;;;;;;0.22;58.93;99738.84;4790644;29;20047;-77
2023/01/04 09:29:59;;;;;;;3.72;2.50;;;;;;;0.31;59.23;99747.63;4789166;29;20141;-78
2023/01/04 09:32:25;;;;;;;5.63;3.10;;;;;;;0.31;58.75;99730.56;4807286;29;20087;-78
2023/01/04 09:34:52;;;;;;;4.10;2.53;;;;;;;0.29;58.84;99740.78;4788967;29;20166;-79
2023/01/04 09:37:18;;;;;;;6.53;2.90;;;;;;;0.31;58.88;99737.41;4790581;29;20097;-78
2023/01/04 09:39:46;;;;;;;5.38;2.85;;;;;;;0.44;58.39;99740.34;4806343;29;20043;-78
2023/01/04 09:42:33;;;;;;;5.78;2.80;;;;;;;0.52;57.97;99749.97;4804886;29;20072;-78
2023/01/04 09:45:15;;;;;;;4.50;2.85;;;;;;;0.49;58.30;99740.53;4814020;29;20046;-79
2023/01/04 09:47:46;;;;;;;6.38;2.80;;;;;;;0.48;58.35;99756.72;4825913;29;20066;-80
2023/01/04 09:50:47;;;;;;;9.50;3.17;;;;;;;0.25;57.81;99733.81;4793092;29;20077;-80
2023/01/04 09:53:32;;;;;;;7.10;3.42;;;;;;;0.37;57.93;99761.50;4827824;29;20058;-80
2023/01/04 09:56:17;;;;;;;7.15;4.20;;;;;;;0.36;57.76;99748.63;4826348;29;20050;-78
2023/01/04 09:58:44;;;;;;;7.03;4.22;;;;;;;0.47;57.72;99748.97;4799214;29;20141;-79
2023/01/04 10:01:17;;;;;;;7.05;3.95;;;;;;;0.60;57.67;99758.78;4802519;29;20453;-81
2023/01/04 10:03:59;;;;;;;14.48;7.38;;;;;;;0.65;58.00;99747.00;4820364;29;20042;-81
2023/01/04 10:06:25;;;;;;;9.95;5.38;;;;;;;0.72;57.93;99745.47;4822674;29;20042;-79
2023/01/04 10:08:51;;;;;;;9.50;4.60;;;;;;;0.82;57.61;99742.34;4786963;29;20043;-79
2023/01/04 10:11:23;;;;;;;8.70;4.45;;;;;;;0.83;57.46;99738.97;4810346;29;20082;-79
2023/01/04 10:14:02;;;;;;;8.52;4.82;;;;;;;0.62;57.59;99717.84;4816212;29;20459;-78
2023/01/04 10:16:28;;;;;;;9.45;4.68;;;;;;;0.87;57.50;99740.81;4823236;29;20046;-77
2023/01/04 10:19:01;;;;;;;6.70;4.32;;;;;;;0.90;57.71;99733.22;4823215;29;20049;-77
2023/01/04 10:21:36;;;;;;;7.00;4.72;;;;;;;0.80;57.03;99707.28;4822654;29;20073;-79
2023/01/04 10:24:28;;;;;;;8.68;4.72;;;;;;;0.95;56.81;99735.91;4824781;29;20042;-80
2023/01/04 10:27:15;;;;;;;10.48;4.93;;;;;;;0.85;57.43;99731.34;4821441;29;20050;-78
2023/01/04 10:29:56;;;;;;;9.77;4.97;;;;;;;0.83;56.73;99731.28;4794829;29;20043;-79
2023/01/04 10:32:42;;;;;;;8.73;5.00;;;;;;;0.88;56.99;99726.31;4817562;29;20050;-78
2023/01/04 10:35:22;;;;;;;9.00;5.22;;;;;;;0.94;56.92;99738.44;4821427;29;20050;-80
2023/01/04 10:38:03;;;;;;;7.88;4.03;;;;;;;0.78;57.00;99721.72;4821948;29;20171;-79
2023/01/04 10:40:36;;;;;;;7.47;4.70;;;;;;;0.71;56.73;99718.13;4807541;29;20075;-79
2023/01/04 10:43:29;;;;;;;8.55;4.68;;;;;;;0.83;56.33;99740.69;4816994;29;20512;-80
2023/01/04 10:46:12;;;;;;;7.10;4.30;;;;;;;0.67;56.11;99722.25;4809474;29;20148;-79
2023/01/04 10:49:20;;;;;;;7.13;4.72;;;;;;;0.75;56.43;99727.66;4809449;29;20042;-80
2023/01/04 10:52:27;;;;;;;7.85;4.70;;;;;;;0.84;56.46;99729.59;4787958;29;20525;-77
2023/01/04 10:55:10;;;;;;;7.63;4.57;;;;;;;0.90;56.00;99734.88;4784668;30;20062;-78
2023/01/04 10:57:48;;;;;;;8.48;4.57;;;;;;;0.91;56.54;99721.25;4788132;29;20051;-78
2023/01/04 11:00:23;;;;;;;9.60;4.85;;;;;;;0.96;55.59;99727.38;4772587;29;20223;-79
2023/01/04 11:03:15;;;;;;;8.27;4.90;;;;;;;0.86;56.10;99716.00;4787988;29;20126;-78
2023/01/04 11:05:54;;;;;;;8.07;4.53;;;;;;;0.97;55.93;99730.84;4780877;29;20135;-77
2023/01/04 11:08:20;;;;;;;9.80;4.45;;;;;;;0.90;55.32;99722.06;4791253;29;20505;-80
2023/01/04 11:10:49;;;;;;;9.18;4.60;;;;;;;0.91;56.08;99718.69;4807484;29;20129;-77
2023/01/04 11:13:18;;;;;;;9.05;4.07;;;;;;;0.83;55.29;99717.63;4807563;29;20078;-79
2023/01/04 11:15:47;;;;;;;8.25;4.32;;;;;;;0.75;55.58;99707.16;4806362;29;20051;-79
2023/01/04 11:18:18;;;;;;;7.20;4.22;;;;;;;0.50;55.38;99665.44;4790845;29;20062;-79
2023/01/04 11:20:44;;;;;;;6.00;3.70;;;;;;;0.72;55.48;99689.97;4806531;29;20075;-79
2023/01/04 11:23:25;;;;;;;6.35;3.88;;;;;;;0.86;55.16;99703.19;4816082;29;20042;-77
2023/01/04 11:26:12;;;;;;;7.10;4.30;;;;;;;0.58;55.54;99648.59;4807348;29;20072;-81
2023/01/04 11:29:03;;;;;;;7.05;4.03;;;;;;;1.12;55.75;99727.81;4805649;29;20053;-82
2023/01/04 11:31:45;;;;;;;7.80;4.43;;;;;;;0.92;54.92;99705.06;4806001;29;20046;-79
2023/01/04 11:34:11;;;;;;;;;;;;;;;1.06;54.76;99736.22;4807301;29;20639;-79
2023/01/04 11:36:43;;;;;;;8.35;3.90;;;;;;;1.00;55.43;99726.66;4804872;29;19937;-79
2023/01/04 11:39:20;;;;;;;9.07;4.57;;;;;;;0.78;55.23;99717.47;4806232;29;20054;-79
2023/01/04 11:42:07;;;;;;;5.63;3.67;;;;;;;0.58;55.21;99684.44;4807160;29;20165;-79
2023/01/04 11:44:35;;;;;;;6.88;3.70;;;;;;;0.76;54.95;99703.78;4814279;29;20057;-79
2023/01/04 11:47:15;;;;;;;8.30;4.10;;;;;;;1.02;54.78;99739.50;4830400;29;20062;-79
2023/01/04 11:49:50;;;;;;;6.38;4.00;;;;;;;0.79;54.55;99701.28;4823162;29;20046;-80
2023/01/04 11:52:36;;;;;;;8.07;4.22;;;;;;;0.48;54.97;99653.41;4790269;29;20219;-83
2023/01/04 11:55:26;;;;;;;7.22;4.40;;;;;;;1.09;54.36;99744.00;4805200;29;20429;-80
2023/01/04 11:58:12;;;;;;;7.18;4.20;;;;;;;0.44;55.13;99631.97;4790367;29;20627;-81
2023/01/04 12:00:57;;;;;;;11.88;4.63;;;;;;;0.93;54.46;99719.59;4804936;29;20091;-79
2023/01/04 12:03:36;;;;;;;10.48;4.70;;;;;;;1.20;54.78;99744.28;4804587;29;20042;-80
2023/01/04 12:06:21;;;;;;;7.00;4.32;;;;;;;0.22;54.91;99592.94;4806146;29;20129;-82
2023/01/04 12:08:50;;;;;;;7.28;4.80;;;;;;;0.71;53.95;99682.25;4777062;29;20050;-80
2023/01/04 12:11:27;;;;;;;7.97;4.70;;;;;;;0.98;54.71;99732.56;4789983;29;20050;-78
2023/01/04 12:14:01;;;;;;;6.25;3.80;;;;;;;0.77;54.29;99712.31;4804008;29;20067;-78
2023/01/04 12:16:46;;;;;;;6.15;3.58;;;;;;;0.83;54.40;99741.53;4806154;29;20065;-80
2023/01/04 12:19:18;;;;;;;6.93;3.60;;;;;;;0.72;54.28;99725.00;4805316;29;20081;-80
2023/01/04 12:22:04;;;;;;;6.05;3.83;;;;;;;0.65;54.47;99733.31;4807721;29;20102;-81
2023/01/04 12:24:33;;;;;;;6.15;3.60;;;;;;;0.60;54.75;99745.97;4777787;29;20055;-80
2023/01/04 12:27:00;;;;;;;6.00;3.58;;;;;;;0.59;54.65;99745.09;4805554;29;20528;-78
2023/01/04 12:29:42;;;;;;;6.82;3.40;;;;;;;0.55;54.61;99745.81;4805453;29;20039;-80
2023/01/04 12:32:09;;;;;;;6.88;3.63;;;;;;;0.61;54.78;99742.59;4806230;29;20055;-80
2023/01/04 12:34:40;;;;;;;7.78;3.67;;;;;;;0.63;54.62;99752.88;4806545;29;20078;-80
2023/01/04 12:37:08;;;;;;;7.55;3.92;;;;;;;0.51;54.55;99738.88;4796000;29;20080;-81
2023/01/04 12:39:42;;;;;;;6.20;3.63;;;;;;;0.58;54.62;99751.03;4807299;29;20058;-79
2023/01/04 12:42:23;;;;;;;5.30;3.17;;;;;;;0.50;54.24;99751.63;4789661;29;20519;-81
2023/01/04 12:44:50;;;;;;;4.63;2.83;;;;;;;0.49;54.79;99757.56;4813830;29;20049;-83
2023/01/04 12:50:30;;;;;;;3.42;2.13;;;;;;;0.10;54.49;99726.50;4816772;29;20042;-80
2023/01/04 12:53:00;;;;;;;4.70;2.20;;;;;;;0.26;54.18;99752.59;4805478;29;20073;-79
2023/01/04 12:55:57;;;;;;;5.72;2.50;;;;;;;-0.70;54.56;99607.13;4804018;29;20641;-78
2023/01/04 12:58:27;;;;;;;4.28;2.30;;;;;;;0.27;53.62;99762.00;4804214;29;20055;-81